Terminal Aerodrome Forecast
Issued by NWS

Home | Current Version | Previous Version | Graphics & Text | Print | Product List | Glossary On
Versions: 1 2 3 4 5 6 7 8 9 10 11 12
790
FTUS43 KICT 011734
TAFCNU
TAF
KCNU 011734Z 0118/0218 VRB03KT P6SM SCT250
     FM012300 15004KT P6SM SCT200
     FM021300 06004KT P6SM SCT080
     FM021500 06004KT P6SM BKN120=

USA.gov is the U.S. government's official web portal to all federal, state and local government web resources and services.